»·PEaware :: SAS186 KLAX-KLAS

SAS186 :: KLAX-KLAS

FLIGHT INFORMATION

Flight Status: Arrived
Operator:
SAS
More flights by this operator :: More flights under this callsign
Pilot: Josh G. (4619)
Aircraft: BOEING 767-300
(B763)
More flights by this aircraft type
Origin: KLAX Los Angeles Intl
United States
Destination: KLAS McCarran Intl
United States
More flights between these airports :: More routes between these airports
Route: +LOOP7 DAG KEPEC3
File this flight plan on PilotEdge
Remarks: Stream
Altitude:
(Current/Filed)
25,000ft
Speed:
(Current/Filed)
450kts
Departed: 13-Dec-15 10:20 PM
Arrived: 13-Dec-15 11:11 PM
Distance/Time
Traveled:
205nm/0:51
Distance/Time
To Go:
Arrived

Flight Plot

Page will automatically refresh every two minutes.


Map Options




Map Legend


Flown Route
Filed Route
Departure Airport
Arrival Airport
Navaid (VOR, NDB)
Fix

Horizontal Profiles

Position Reports

Time Latitude Longitude Heading Altitude Ground
Speed
13-Dec-15 21:17 33.947002 -118.407774 174 136ft 0kts
13-Dec-15 21:18 33.947002 -118.407774 174 136ft 0kts
13-Dec-15 21:19 33.947002 -118.407774 174 136ft 0kts
13-Dec-15 21:20 33.947002 -118.407774 174 136ft 0kts
13-Dec-15 21:21 33.947002 -118.407774 174 136ft 0kts
13-Dec-15 21:22 33.947002 -118.407774 174 136ft 0kts
13-Dec-15 21:23 33.947002 -118.407774 174 136ft 0kts
13-Dec-15 21:24 33.947002 -118.407774 174 136ft 0kts
13-Dec-15 21:25 33.947002 -118.407774 174 136ft 0kts
13-Dec-15 21:26 33.947002 -118.407774 174 136ft 0kts
13-Dec-15 21:27 33.947002 -118.407774 174 136ft 0kts
13-Dec-15 21:29 33.947002 -118.407774 174 136ft 0kts
13-Dec-15 21:30 33.947002 -118.407774 174 136ft 0kts
13-Dec-15 21:31 33.947002 -118.407774 174 136ft 0kts
13-Dec-15 21:32 33.947002 -118.407774 174 136ft 0kts
13-Dec-15 21:33 33.947002 -118.407774 174 136ft 0kts
13-Dec-15 21:34 33.947002 -118.407774 174 136ft 0kts
13-Dec-15 21:35 33.947002 -118.407774 174 136ft 0kts
13-Dec-15 21:36 33.947187 -118.407794 175 136ft 2kts
13-Dec-15 21:37 33.947700 -118.408056 91 136ft 2kts
13-Dec-15 21:38 33.947701 -118.408107 91 136ft 0kts
13-Dec-15 21:39 33.947701 -118.408107 91 136ft 0kts
13-Dec-15 21:40 33.947701 -118.408107 91 136ft 0kts
13-Dec-15 21:41 33.947701 -118.408107 91 136ft 0kts
13-Dec-15 21:42 33.947701 -118.408107 91 136ft 0kts
13-Dec-15 21:43 33.947701 -118.408107 91 136ft 0kts
13-Dec-15 21:44 33.947701 -118.408107 91 136ft 0kts
13-Dec-15 21:45 33.947701 -118.408107 91 136ft 0kts
13-Dec-15 21:46 33.947701 -118.408107 91 136ft 0kts
13-Dec-15 21:47 33.947701 -118.408107 91 136ft 0kts
13-Dec-15 21:48 33.947701 -118.408107 91 136ft 0kts
13-Dec-15 21:50 33.946960 -118.404931 114 136ft 0kts
13-Dec-15 21:51 33.946960 -118.404931 114 136ft 0kts
13-Dec-15 21:56 33.946960 -118.404931 114 136ft 0kts
13-Dec-15 21:57 33.946960 -118.404931 114 136ft 0kts
13-Dec-15 21:58 33.946960 -118.404931 114 136ft 0kts
13-Dec-15 21:59 33.946960 -118.404931 114 136ft 0kts
13-Dec-15 22:00 33.947030 -118.405129 103 136ft 2kts
13-Dec-15 22:01 33.946889 -118.405731 40 136ft 2kts
13-Dec-15 22:02 33.946535 -118.405890 0 136ft 0kts
13-Dec-15 22:03 33.946535 -118.405890 0 136ft 0kts
13-Dec-15 22:04 33.946535 -118.405890 0 136ft 0kts
13-Dec-15 22:05 33.946535 -118.405890 0 136ft 0kts
13-Dec-15 22:06 33.946535 -118.405890 0 136ft 0kts
13-Dec-15 22:07 33.946535 -118.405890 0 136ft 0kts
13-Dec-15 22:08 33.946535 -118.405890 0 136ft 0kts
13-Dec-15 22:09 33.946535 -118.405890 0 136ft 0kts
13-Dec-15 22:10 33.947228 -118.405879 3 136ft 9kts
13-Dec-15 22:11 33.948180 -118.403319 74 136ft 10kts
13-Dec-15 22:12 33.948978 -118.402489 62 136ft 3kts
13-Dec-15 22:13 33.949057 -118.402188 69 136ft 0kts
13-Dec-15 22:14 33.949167 -118.401995 49 136ft 0kts
13-Dec-15 22:14 33.949167 -118.401995 49 136ft 0kts
13-Dec-15 22:15 33.950097 -118.402584 264 136ft 9kts
13-Dec-15 22:16 33.946076 -118.439344 262 2196ft 166kts
13-Dec-15 22:17 33.939273 -118.492949 261 5669ft 207kts
13-Dec-15 22:18 33.930042 -118.569887 261 7872ft 237kts
13-Dec-15 22:19 33.888318 -118.622116 183 10136ft 289kts
13-Dec-15 22:20 33.834101 -118.539429 96 11948ft 405kts
13-Dec-15 22:21 33.872317 -118.424102 33 15321ft 405kts
13-Dec-15 22:22 33.955489 -118.351253 40 18386ft 429kts
13-Dec-15 22:23 34.016412 -118.231219 56 21249ft 462kts
13-Dec-15 22:24 34.078907 -118.109741 45 23276ft 470kts
13-Dec-15 22:25 34.153687 -117.989307 45 25026ft 472kts
13-Dec-15 22:26 34.220083 -117.865907 48 25023ft 470kts
13-Dec-15 22:27 34.288833 -117.747974 48 25012ft 469kts
13-Dec-15 22:28 34.360019 -117.626029 48 24990ft 469kts
13-Dec-15 22:29 34.431223 -117.503675 48 24966ft 469kts
13-Dec-15 22:30 34.503332 -117.379339 48 24954ft 469kts
13-Dec-15 22:31 34.574076 -117.256932 48 24953ft 469kts
13-Dec-15 22:32 34.646674 -117.130876 48 24955ft 470kts
13-Dec-15 22:34 34.718617 -117.005532 48 24945ft 471kts
13-Dec-15 22:35 34.789789 -116.881178 49 24921ft 472kts
13-Dec-15 22:36 34.859972 -116.758863 49 24917ft 472kts
13-Dec-15 22:37 34.932325 -116.631436 49 23684ft 465kts
13-Dec-15 22:38 35.012820 -116.515757 39 21583ft 440kts
13-Dec-15 22:39 35.096497 -116.411126 39 20633ft 434kts
13-Dec-15 22:40 35.179002 -116.307828 39 19657ft 428kts
13-Dec-15 22:41 35.260001 -116.206114 39 18695ft 421kts
13-Dec-15 22:42 35.340133 -116.105184 39 17738ft 415kts
13-Dec-15 22:43 35.418990 -116.005561 39 16791ft 409kts
13-Dec-15 22:44 35.495383 -115.908770 39 15866ft 403kts
13-Dec-15 22:45 35.568234 -115.816844 40 14935ft 391kts
13-Dec-15 22:46 35.634476 -115.732463 40 13605ft 350kts
13-Dec-15 22:47 35.700768 -115.647829 40 12845ft 347kts
13-Dec-15 22:48 35.766091 -115.563859 51 12816ft 351kts
13-Dec-15 22:49 35.819448 -115.466234 51 12813ft 351kts
13-Dec-15 22:50 35.872649 -115.368963 51 12804ft 352kts
13-Dec-15 22:51 35.926280 -115.271418 51 11389ft 347kts
13-Dec-15 22:52 35.978600 -115.179863 51 9668ft 352kts
13-Dec-15 22:53 36.032189 -115.091646 51 7982ft 353kts
13-Dec-15 22:54 36.086810 -115.009516 51 6792ft 336kts
13-Dec-15 22:55 36.136809 -114.935773 51 6840ft 271kts
13-Dec-15 22:56 36.190825 -114.874740 40 6806ft 273kts
13-Dec-15 22:57 36.247308 -114.815109 25 6764ft 272kts
13-Dec-15 22:58 36.297495 -114.844746 259 5840ft 195kts
13-Dec-15 22:59 36.281977 -114.898942 251 5789ft 167kts
13-Dec-15 23:00 36.275296 -114.957098 255 5791ft 172kts
13-Dec-15 23:01 36.265101 -115.011392 215 5622ft 167kts
13-Dec-15 23:02 36.231723 -115.040954 207 4787ft 168kts
13-Dec-15 23:03 36.202810 -115.072847 219 4595ft 187kts
13-Dec-15 23:04 36.176958 -115.104274 209 3901ft 170kts
13-Dec-15 23:05 36.145936 -115.126199 197 3305ft 173kts
13-Dec-15 23:06 36.115010 -115.144071 204 2581ft 141kts
13-Dec-15 23:07 36.085822 -115.160837 204 2193ft 100kts
13-Dec-15 23:08 36.078034 -115.163549 88 2193ft 7kts
13-Dec-15 23:09 36.078010 -115.157890 91 2193ft 21kts
13-Dec-15 23:10 36.078018 -115.151795 91 2193ft 16kts
13-Dec-15 23:11 36.078629 -115.147426 40 2193ft 11kts

Navigation Log

Ident Type
1. KLAX Airport
2. LAX Navaid
3. KEGGS Fix
4. COOPP Fix
5. DAG Navaid
6. MISEN Fix
7. CLARR Fix
8. SKEBR Fix
9. KEPEC Fix
10. IPUMY Fix
11. NIPZO Fix
12. SUNST Fix
13. KIMME Fix
14. CHIPZ Fix
15. POKRR Fix
16. PRINO Fix
17. KLAS Airport